Gobler, MO (63849)

4:03 PM CDT on July 11, 2014 (GMT -0500)
KC0UFP WX (KMOKENNE4) Elev 262 ft | 36.21 °N, 90.07 °W | Change Station

Current weather conditions updated 9 minutes ago

Mostly Cloudy
Mostly Cloudy
91.2 °F
Feels Like 100 °F
N
3.7
Wind Variable Wind from WSW

Tomorrow is forecast to be nearly the same temperature as today.

Today
High -- | Low -- °F
--% Chance of Precip.
Yesterday
High -- | Low -- °F
Precip. -- in
5:51 AM 8:18 PM
Waxing Gibbous, 99% visible
Pressure 30.15 in
Visibility 10.0 miles
Clouds Few 12000 ft
Mostly Cloudy 15000 ft
Heat Index 100 °F
Dew Point 73 °F
Humidity 55%
Rainfall 0.00 in
Snow Depth Not available.
UV 6 out of 12
Pollen 3.20 out of 12
Air Quality Not available.
Flu Activity Sporadic
METAR KBYH 111850Z 17006KT 10SM FEW120 BKN150 32/21 A3015

More Conditions Fewer Conditions

Pressure 30.15 in
Visibility 10.0 miles
Clouds Few 12000 ft
Mostly Cloudy 15000 ft
Heat Index 100 °F
Dew Point 73 °F
Humidity 55%
Rainfall 0.00 in
Snow Depth Not available.
UV 6 out of 12
Pollen 3.20 out of 12
Air Quality Not available.
Flu Activity Sporadic
METAR KBYH 111850Z 17006KT 10SM FEW120 BKN150 32/21 A3015

More Conditions Fewer Conditions

10-Day Weather Forecast

Almanac

Astronomy

Jul. 11, 2014 Rise Set
Actual Time 5:51 AM CDT 8:18 PM CDT
Civil Twilight 5:21 AM CDT 8:48 PM CDT
Nautical Twilight 4:45 AM CDT 9:25 PM CDT
Astronomical Twilight 4:04 AM CDT 10:05 PM CDT
Moon 7:31 PM CDT 5:02 AM CDT
Length of Visible Light 15h 26m
Length of Day
14h 27m
Tomorrow will be 1m 0s shorter.
Waxing Gibbous, 99% of the Moon is Illuminated
Today
Waxing Gibbous
Jul 12
Full
Jul 18
Last Quarter
Jul 26
New
Aug 3
First Quarter

Today's Extremes

State Highs State Lows

Community

WunderPhotos

Upload Photos

1,732,566 photos uploaded!

WunderBlogs® & News

Nearby

Snow Depth

Station Depth Elevation
No new snow has been reported.

Earthquake Activity

City Distance Mag. Time & Date
No recent earthquake activity has been reported nearby.
Minimum magnitude displayed is 2.5.

Coastal Water Temperatures

Place Temperature
No Stations Reporting

Nearby Weather Stations

Station Location Temp. Heat Index Dew Point Humidity Wind Precip. Elev Updated Type
KC0UFP WX, Kennett, MO 91.2 °F 100 °F 73 °F 55% WSW  at  3.7 mph - / hr 262 ft 3:53 PM CDT Normal
Kennett E911, Kennett, MO 90.3 °F 97 °F 71 °F 53% SW  at  0.0 mph 0.00 in / hr 262 ft 4:02 PM CDT Rapid Fire
Peach Orchard, Gideon, MO 89.5 °F 95 °F 70 °F 53% SE  at  0.0 mph 0.00 in / hr 263 ft 4:02 PM CDT Rapid Fire
MesoWest GRNWAY , Rector, AR 87 °F 84 °F - - North  at  - 0.00 in / hr 293 ft 3:10 PM CDT MADIS
MesoWest PIGGOT , Piggott, AR 96 °F 91 °F - - North  at  - 0.00 in / hr 287 ft 2:55 PM CDT MADIS

Show More Stations Show Fewer Stations